sensor_id;sensor_type;location;lat;lon;timestamp;P1;durP1;ratioP1;P2;durP2;ratioP2
8333;SDS011;4204;43.004;23.052;2023-02-01T00:00:20;9.10;;;6.00;;
8333;SDS011;4204;43.004;23.052;2023-02-01T00:02:51;8.43;;;6.00;;
8333;SDS011;4204;43.004;23.052;2023-02-01T00:05:21;8.33;;;6.23;;
8333;SDS011;4204;43.004;23.052;2023-02-01T00:07:55;6.50;;;5.43;;
8333;SDS011;4204;43.004;23.052;2023-02-01T00:10:35;9.97;;;6.37;;
8333;SDS011;4204;43.004;23.052;2023-02-01T00:13:13;8.87;;;6.73;;
8333;SDS011;4204;43.004;23.052;2023-02-01T00:15:44;10.57;;;6.60;;
8333;SDS011;4204;43.004;23.052;2023-02-01T00:18:13;9.30;;;6.73;;
8333;SDS011;4204;43.004;23.052;2023-02-01T00:20:45;9.60;;;6.80;;
8333;SDS011;4204;43.004;23.052;2023-02-01T00:23:16;8.80;;;6.50;;
8333;SDS011;4204;43.004;23.052;2023-02-01T00:25:50;9.50;;;6.60;;
8333;SDS011;4204;43.004;23.052;2023-02-01T00:28:19;9.37;;;6.27;;
8333;SDS011;4204;43.004;23.052;2023-02-01T00:30:55;8.27;;;6.37;;
8333;SDS011;4204;43.004;23.052;2023-02-01T00:33:26;9.03;;;6.00;;
8333;SDS011;4204;43.004;23.052;2023-02-01T00:35:56;8.20;;;5.77;;
8333;SDS011;4204;43.004;23.052;2023-02-01T00:38:30;8.90;;;6.10;;
8333;SDS011;4204;43.004;23.052;2023-02-01T00:41:01;9.33;;;6.20;;
8333;SDS011;4204;43.004;23.052;2023-02-01T00:43:39;8.30;;;5.60;;
8333;SDS011;4204;43.004;23.052;2023-02-01T00:46:10;9.70;;;6.17;;
8333;SDS011;4204;43.004;23.052;2023-02-01T00:48:45;8.37;;;5.90;;
8333;SDS011;4204;43.004;23.052;2023-02-01T00:51:25;7.33;;;5.97;;
8333;SDS011;4204;43.004;23.052;2023-02-01T00:53:56;8.53;;;5.47;;
8333;SDS011;4204;43.004;23.052;2023-02-01T00:56:30;8.57;;;5.53;;
8333;SDS011;4204;43.004;23.052;2023-02-01T00:59:02;10.00;;;5.47;;
8333;SDS011;4204;43.004;23.052;2023-02-01T01:01:33;8.13;;;6.07;;
8333;SDS011;4204;43.004;23.052;2023-02-01T01:04:02;6.87;;;5.83;;
8333;SDS011;4204;43.004;23.052;2023-02-01T01:06:35;9.80;;;5.63;;
8333;SDS011;4204;43.004;23.052;2023-02-01T01:09:07;14.23;;;6.50;;
8333;SDS011;4204;43.004;23.052;2023-02-01T01:11:38;8.17;;;6.30;;
8333;SDS011;4204;43.004;23.052;2023-02-01T01:14:14;7.97;;;5.30;;
8333;SDS011;4204;43.004;23.052;2023-02-01T01:16:46;8.33;;;5.73;;
8333;SDS011;4204;43.004;23.052;2023-02-01T01:19:16;12.27;;;6.07;;
8333;SDS011;4204;43.004;23.052;2023-02-01T01:21:47;7.33;;;5.90;;
8333;SDS011;4204;43.004;23.052;2023-02-01T01:24:20;7.43;;;5.53;;
8333;SDS011;4204;43.004;23.052;2023-02-01T01:26:54;8.73;;;5.77;;
8333;SDS011;4204;43.004;23.052;2023-02-01T01:29:29;10.40;;;6.77;;
8333;SDS011;4204;43.004;23.052;2023-02-01T01:31:57;10.63;;;6.10;;
8333;SDS011;4204;43.004;23.052;2023-02-01T01:34:24;10.73;;;6.33;;
8333;SDS011;4204;43.004;23.052;2023-02-01T01:36:55;7.37;;;6.10;;
8333;SDS011;4204;43.004;23.052;2023-02-01T01:39:23;8.77;;;5.63;;
8333;SDS011;4204;43.004;23.052;2023-02-01T01:41:54;8.67;;;6.33;;
8333;SDS011;4204;43.004;23.052;2023-02-01T01:47:29;6.97;;;5.47;;
8333;SDS011;4204;43.004;23.052;2023-02-01T01:50:04;7.80;;;5.73;;
8333;SDS011;4204;43.004;23.052;2023-02-01T01:52:38;7.13;;;5.13;;
8333;SDS011;4204;43.004;23.052;2023-02-01T01:55:18;14.57;;;8.47;;
8333;SDS011;4204;43.004;23.052;2023-02-01T01:57:51;11.87;;;7.50;;
8333;SDS011;4204;43.004;23.052;2023-02-01T02:00:32;10.30;;;6.00;;
8333;SDS011;4204;43.004;23.052;2023-02-01T02:03:08;23.77;;;15.80;;
8333;SDS011;4204;43.004;23.052;2023-02-01T02:05:49;8.37;;;6.47;;
8333;SDS011;4204;43.004;23.052;2023-02-01T02:08:20;9.77;;;6.10;;
8333;SDS011;4204;43.004;23.052;2023-02-01T02:10:55;6.70;;;5.30;;
8333;SDS011;4204;43.004;23.052;2023-02-01T02:13:31;9.87;;;5.70;;
8333;SDS011;4204;43.004;23.052;2023-02-01T02:16:12;8.37;;;5.33;;
8333;SDS011;4204;43.004;23.052;2023-02-01T02:18:50;8.00;;;5.03;;
8333;SDS011;4204;43.004;23.052;2023-02-01T02:21:38;8.13;;;5.63;;
8333;SDS011;4204;43.004;23.052;2023-02-01T02:24:30;9.67;;;5.93;;
8333;SDS011;4204;43.004;23.052;2023-02-01T02:27:18;9.93;;;5.13;;
8333;SDS011;4204;43.004;23.052;2023-02-01T02:36:27;10.40;;;5.40;;
8333;SDS011;4204;43.004;23.052;2023-02-01T02:39:09;8.23;;;5.67;;
8333;SDS011;4204;43.004;23.052;2023-02-01T02:41:53;9.57;;;6.17;;
8333;SDS011;4204;43.004;23.052;2023-02-01T02:44:45;8.67;;;5.97;;
8333;SDS011;4204;43.004;23.052;2023-02-01T02:47:36;8.63;;;5.60;;
8333;SDS011;4204;43.004;23.052;2023-02-01T02:50:20;7.27;;;5.07;;
8333;SDS011;4204;43.004;23.052;2023-02-01T02:53:16;12.70;;;8.23;;
8333;SDS011;4204;43.004;23.052;2023-02-01T02:56:05;8.60;;;6.50;;
8333;SDS011;4204;43.004;23.052;2023-02-01T02:58:55;7.53;;;5.60;;
8333;SDS011;4204;43.004;23.052;2023-02-01T03:01:49;6.67;;;4.63;;
8333;SDS011;4204;43.004;23.052;2023-02-01T03:04:38;7.37;;;5.97;;
8333;SDS011;4204;43.004;23.052;2023-02-01T03:10:16;7.07;;;5.47;;
8333;SDS011;4204;43.004;23.052;2023-02-01T03:13:04;12.83;;;7.90;;
8333;SDS011;4204;43.004;23.052;2023-02-01T03:15:40;10.30;;;7.20;;
8333;SDS011;4204;43.004;23.052;2023-02-01T03:18:26;13.70;;;8.20;;
8333;SDS011;4204;43.004;23.052;2023-02-01T03:20:59;12.77;;;7.53;;
8333;SDS011;4204;43.004;23.052;2023-02-01T03:23:32;9.80;;;6.90;;
8333;SDS011;4204;43.004;23.052;2023-02-01T03:26:08;8.80;;;5.40;;
8333;SDS011;4204;43.004;23.052;2023-02-01T03:28:49;8.07;;;4.97;;
8333;SDS011;4204;43.004;23.052;2023-02-01T03:31:36;8.90;;;5.70;;
8333;SDS011;4204;43.004;23.052;2023-02-01T03:34:09;6.47;;;4.80;;
8333;SDS011;4204;43.004;23.052;2023-02-01T03:36:50;10.07;;;4.97;;
8333;SDS011;4204;43.004;23.052;2023-02-01T03:39:25;7.80;;;5.07;;
8333;SDS011;4204;43.004;23.052;2023-02-01T03:42:06;6.13;;;4.70;;
8333;SDS011;4204;43.004;23.052;2023-02-01T03:44:40;8.60;;;5.87;;
8333;SDS011;4204;43.004;23.052;2023-02-01T03:47:21;8.47;;;5.57;;
8333;SDS011;4204;43.004;23.052;2023-02-01T03:49:57;7.47;;;5.30;;
8333;SDS011;4204;43.004;23.052;2023-02-01T03:52:32;9.03;;;6.03;;
8333;SDS011;4204;43.004;23.052;2023-02-01T03:55:05;12.30;;;7.83;;
8333;SDS011;4204;43.004;23.052;2023-02-01T03:57:48;7.40;;;5.80;;
8333;SDS011;4204;43.004;23.052;2023-02-01T04:00:24;10.40;;;6.40;;
8333;SDS011;4204;43.004;23.052;2023-02-01T04:03:06;8.90;;;6.37;;
8333;SDS011;4204;43.004;23.052;2023-02-01T04:05:37;9.00;;;6.30;;
8333;SDS011;4204;43.004;23.052;2023-02-01T04:08:16;7.83;;;6.07;;
8333;SDS011;4204;43.004;23.052;2023-02-01T04:10:53;11.63;;;5.83;;
8333;SDS011;4204;43.004;23.052;2023-02-01T04:13:26;8.50;;;6.23;;
8333;SDS011;4204;43.004;23.052;2023-02-01T04:15:56;17.63;;;9.30;;
8333;SDS011;4204;43.004;23.052;2023-02-01T04:18:38;11.23;;;7.87;;
8333;SDS011;4204;43.004;23.052;2023-02-01T04:21:23;11.70;;;8.23;;
8333;SDS011;4204;43.004;23.052;2023-02-01T04:23:56;14.43;;;7.90;;
8333;SDS011;4204;43.004;23.052;2023-02-01T04:26:27;8.17;;;6.47;;
8333;SDS011;4204;43.004;23.052;2023-02-01T04:28:59;10.40;;;6.67;;
8333;SDS011;4204;43.004;23.052;2023-02-01T04:31:29;9.70;;;5.83;;
8333;SDS011;4204;43.004;23.052;2023-02-01T04:34:00;8.10;;;6.00;;
8333;SDS011;4204;43.004;23.052;2023-02-01T04:36:37;6.83;;;5.47;;
8333;SDS011;4204;43.004;23.052;2023-02-01T04:39:08;7.27;;;5.47;;
8333;SDS011;4204;43.004;23.052;2023-02-01T04:41:38;9.63;;;5.27;;
8333;SDS011;4204;43.004;23.052;2023-02-01T04:44:12;7.90;;;6.20;;
8333;SDS011;4204;43.004;23.052;2023-02-01T04:46:45;12.77;;;5.60;;
8333;SDS011;4204;43.004;23.052;2023-02-01T04:49:19;10.63;;;5.40;;
8333;SDS011;4204;43.004;23.052;2023-02-01T04:51:50;10.40;;;5.73;;
8333;SDS011;4204;43.004;23.052;2023-02-01T04:54:20;8.03;;;4.93;;
8333;SDS011;4204;43.004;23.052;2023-02-01T04:56:54;8.97;;;5.63;;
8333;SDS011;4204;43.004;23.052;2023-02-01T04:59:30;8.67;;;5.70;;
8333;SDS011;4204;43.004;23.052;2023-02-01T05:02:02;8.03;;;5.50;;
8333;SDS011;4204;43.004;23.052;2023-02-01T05:04:30;7.60;;;5.30;;
8333;SDS011;4204;43.004;23.052;2023-02-01T05:07:03;13.73;;;6.50;;
8333;SDS011;4204;43.004;23.052;2023-02-01T05:09:39;8.37;;;6.07;;
8333;SDS011;4204;43.004;23.052;2023-02-01T05:12:11;9.27;;;6.53;;
8333;SDS011;4204;43.004;23.052;2023-02-01T05:15:00;12.20;;;6.93;;
8333;SDS011;4204;43.004;23.052;2023-02-01T05:17:38;11.07;;;6.30;;
8333;SDS011;4204;43.004;23.052;2023-02-01T05:20:07;7.37;;;5.70;;
8333;SDS011;4204;43.004;23.052;2023-02-01T05:22:36;10.93;;;6.47;;
8333;SDS011;4204;43.004;23.052;2023-02-01T05:25:09;11.43;;;6.00;;
8333;SDS011;4204;43.004;23.052;2023-02-01T05:27:37;8.00;;;6.03;;
8333;SDS011;4204;43.004;23.052;2023-02-01T05:30:09;9.17;;;5.97;;
8333;SDS011;4204;43.004;23.052;2023-02-01T05:32:45;14.03;;;6.43;;
8333;SDS011;4204;43.004;23.052;2023-02-01T05:35:25;7.47;;;5.53;;
8333;SDS011;4204;43.004;23.052;2023-02-01T05:37:58;8.87;;;5.50;;
8333;SDS011;4204;43.004;23.052;2023-02-01T05:40:37;7.57;;;5.10;;
8333;SDS011;4204;43.004;23.052;2023-02-01T05:43:10;9.57;;;5.40;;
8333;SDS011;4204;43.004;23.052;2023-02-01T05:45:45;9.07;;;5.77;;
8333;SDS011;4204;43.004;23.052;2023-02-01T05:48:14;8.50;;;5.43;;
8333;SDS011;4204;43.004;23.052;2023-02-01T05:50:46;10.50;;;4.93;;
8333;SDS011;4204;43.004;23.052;2023-02-01T05:53:16;7.87;;;5.00;;
8333;SDS011;4204;43.004;23.052;2023-02-01T05:55:48;8.77;;;5.03;;
8333;SDS011;4204;43.004;23.052;2023-02-01T05:58:19;9.80;;;5.43;;
8333;SDS011;4204;43.004;23.052;2023-02-01T06:00:51;8.30;;;4.90;;
8333;SDS011;4204;43.004;23.052;2023-02-01T06:03:21;10.63;;;6.33;;
8333;SDS011;4204;43.004;23.052;2023-02-01T06:05:52;8.87;;;4.80;;
8333;SDS011;4204;43.004;23.052;2023-02-01T06:08:35;10.73;;;4.53;;
8333;SDS011;4204;43.004;23.052;2023-02-01T06:11:08;6.40;;;4.67;;
8333;SDS011;4204;43.004;23.052;2023-02-01T06:13:47;7.80;;;5.07;;
8333;SDS011;4204;43.004;23.052;2023-02-01T06:16:22;9.17;;;4.30;;
8333;SDS011;4204;43.004;23.052;2023-02-01T06:18:53;6.17;;;4.37;;
8333;SDS011;4204;43.004;23.052;2023-02-01T06:21:23;7.50;;;4.20;;
8333;SDS011;4204;43.004;23.052;2023-02-01T06:23:55;6.10;;;3.60;;
8333;SDS011;4204;43.004;23.052;2023-02-01T06:26:28;6.73;;;4.23;;
8333;SDS011;4204;43.004;23.052;2023-02-01T06:29:06;4.83;;;3.53;;
8333;SDS011;4204;43.004;23.052;2023-02-01T06:31:42;6.03;;;3.70;;
8333;SDS011;4204;43.004;23.052;2023-02-01T06:34:12;12.13;;;4.97;;
8333;SDS011;4204;43.004;23.052;2023-02-01T06:36:43;7.87;;;3.97;;
8333;SDS011;4204;43.004;23.052;2023-02-01T06:39:14;9.10;;;4.30;;
8333;SDS011;4204;43.004;23.052;2023-02-01T06:41:45;6.00;;;3.70;;
8333;SDS011;4204;43.004;23.052;2023-02-01T06:44:25;7.27;;;4.07;;
8333;SDS011;4204;43.004;23.052;2023-02-01T06:46:57;10.70;;;5.40;;
8333;SDS011;4204;43.004;23.052;2023-02-01T06:49:29;16.47;;;7.27;;
8333;SDS011;4204;43.004;23.052;2023-02-01T06:51:59;20.43;;;8.27;;
8333;SDS011;4204;43.004;23.052;2023-02-01T06:54:29;14.73;;;8.13;;
8333;SDS011;4204;43.004;23.052;2023-02-01T06:57:00;10.43;;;7.17;;
8333;SDS011;4204;43.004;23.052;2023-02-01T06:59:31;18.00;;;10.43;;
8333;SDS011;4204;43.004;23.052;2023-02-01T07:02:00;8.57;;;5.00;;
8333;SDS011;4204;43.004;23.052;2023-02-01T07:04:30;9.57;;;5.40;;
8333;SDS011;4204;43.004;23.052;2023-02-01T07:07:03;10.90;;;7.27;;
8333;SDS011;4204;43.004;23.052;2023-02-01T07:09:31;7.10;;;4.83;;
8333;SDS011;4204;43.004;23.052;2023-02-01T07:12:06;6.70;;;5.10;;
8333;SDS011;4204;43.004;23.052;2023-02-01T07:14:48;11.80;;;5.47;;
8333;SDS011;4204;43.004;23.052;2023-02-01T07:17:22;7.97;;;4.80;;
8333;SDS011;4204;43.004;23.052;2023-02-01T07:19:56;9.17;;;4.80;;
8333;SDS011;4204;43.004;23.052;2023-02-01T07:22:28;8.47;;;5.23;;
8333;SDS011;4204;43.004;23.052;2023-02-01T07:24:59;7.20;;;4.47;;
8333;SDS011;4204;43.004;23.052;2023-02-01T07:27:29;8.33;;;5.60;;
8333;SDS011;4204;43.004;23.052;2023-02-01T07:30:05;7.07;;;4.67;;
8333;SDS011;4204;43.004;23.052;2023-02-01T07:32:35;4.80;;;3.90;;
8333;SDS011;4204;43.004;23.052;2023-02-01T07:35:09;11.47;;;6.80;;
8333;SDS011;4204;43.004;23.052;2023-02-01T07:37:41;10.50;;;5.83;;
8333;SDS011;4204;43.004;23.052;2023-02-01T07:40:10;8.37;;;5.67;;
8333;SDS011;4204;43.004;23.052;2023-02-01T07:42:43;5.93;;;4.23;;
8333;SDS011;4204;43.004;23.052;2023-02-01T07:45:20;9.57;;;3.97;;
8333;SDS011;4204;43.004;23.052;2023-02-01T07:48:03;6.33;;;4.30;;
8333;SDS011;4204;43.004;23.052;2023-02-01T07:50:40;8.00;;;4.60;;
8333;SDS011;4204;43.004;23.052;2023-02-01T07:53:18;4.93;;;4.00;;
8333;SDS011;4204;43.004;23.052;2023-02-01T07:55:51;8.83;;;4.70;;
8333;SDS011;4204;43.004;23.052;2023-02-01T07:58:19;10.50;;;4.60;;
8333;SDS011;4204;43.004;23.052;2023-02-01T08:00:47;7.40;;;4.80;;
8333;SDS011;4204;43.004;23.052;2023-02-01T08:03:39;7.63;;;4.60;;
8333;SDS011;4204;43.004;23.052;2023-02-01T08:06:09;7.27;;;5.73;;
8333;SDS011;4204;43.004;23.052;2023-02-01T08:08:37;7.13;;;4.40;;
8333;SDS011;4204;43.004;23.052;2023-02-01T08:11:09;7.63;;;5.00;;
8333;SDS011;4204;43.004;23.052;2023-02-01T08:13:38;8.70;;;5.63;;
8333;SDS011;4204;43.004;23.052;2023-02-01T08:16:09;9.53;;;6.03;;
8333;SDS011;4204;43.004;23.052;2023-02-01T08:18:45;11.67;;;5.23;;
8333;SDS011;4204;43.004;23.052;2023-02-01T08:21:16;9.20;;;5.30;;
8333;SDS011;4204;43.004;23.052;2023-02-01T08:23:49;4.60;;;3.77;;
8333;SDS011;4204;43.004;23.052;2023-02-01T08:26:21;5.93;;;4.07;;
8333;SDS011;4204;43.004;23.052;2023-02-01T08:28:51;6.87;;;3.50;;
8333;SDS011;4204;43.004;23.052;2023-02-01T08:31:21;7.23;;;3.97;;
8333;SDS011;4204;43.004;23.052;2023-02-01T08:33:55;5.43;;;3.80;;
8333;SDS011;4204;43.004;23.052;2023-02-01T08:36:33;5.50;;;3.63;;
8333;SDS011;4204;43.004;23.052;2023-02-01T08:39:02;6.73;;;5.00;;
8333;SDS011;4204;43.004;23.052;2023-02-01T08:41:37;6.07;;;4.23;;
8333;SDS011;4204;43.004;23.052;2023-02-01T08:44:07;5.03;;;3.93;;
8333;SDS011;4204;43.004;23.052;2023-02-01T08:46:35;4.27;;;3.27;;
8333;SDS011;4204;43.004;23.052;2023-02-01T08:49:06;5.13;;;3.00;;
8333;SDS011;4204;43.004;23.052;2023-02-01T08:51:36;5.57;;;3.60;;
8333;SDS011;4204;43.004;23.052;2023-02-01T08:54:06;7.00;;;3.63;;
8333;SDS011;4204;43.004;23.052;2023-02-01T08:56:40;7.93;;;5.50;;
8333;SDS011;4204;43.004;23.052;2023-02-01T08:59:07;5.43;;;3.97;;
8333;SDS011;4204;43.004;23.052;2023-02-01T09:01:38;13.53;;;8.97;;
8333;SDS011;4204;43.004;23.052;2023-02-01T09:04:07;5.50;;;3.57;;
8333;SDS011;4204;43.004;23.052;2023-02-01T09:06:35;7.17;;;4.60;;
8333;SDS011;4204;43.004;23.052;2023-02-01T09:09:14;8.77;;;3.60;;
8333;SDS011;4204;43.004;23.052;2023-02-01T09:11:42;7.50;;;4.83;;
8333;SDS011;4204;43.004;23.052;2023-02-01T09:14:15;5.70;;;2.70;;
8333;SDS011;4204;43.004;23.052;2023-02-01T09:16:45;4.50;;;3.30;;
8333;SDS011;4204;43.004;23.052;2023-02-01T09:19:15;5.50;;;3.00;;
8333;SDS011;4204;43.004;23.052;2023-02-01T09:21:45;5.60;;;3.00;;
8333;SDS011;4204;43.004;23.052;2023-02-01T09:24:16;6.90;;;3.93;;
8333;SDS011;4204;43.004;23.052;2023-02-01T09:26:44;4.87;;;3.17;;
8333;SDS011;4204;43.004;23.052;2023-02-01T09:29:20;6.87;;;2.90;;
8333;SDS011;4204;43.004;23.052;2023-02-01T09:32:00;5.33;;;3.50;;
8333;SDS011;4204;43.004;23.052;2023-02-01T09:34:32;7.30;;;3.00;;
8333;SDS011;4204;43.004;23.052;2023-02-01T09:37:03;3.77;;;3.07;;
8333;SDS011;4204;43.004;23.052;2023-02-01T09:39:31;3.77;;;2.90;;
8333;SDS011;4204;43.004;23.052;2023-02-01T09:42:02;4.63;;;3.10;;
8333;SDS011;4204;43.004;23.052;2023-02-01T09:44:43;3.23;;;2.50;;
8333;SDS011;4204;43.004;23.052;2023-02-01T09:47:26;3.70;;;1.93;;
8333;SDS011;4204;43.004;23.052;2023-02-01T09:49:59;9.43;;;4.53;;
8333;SDS011;4204;43.004;23.052;2023-02-01T09:52:31;5.80;;;3.03;;
8333;SDS011;4204;43.004;23.052;2023-02-01T09:55:11;4.30;;;2.17;;
8333;SDS011;4204;43.004;23.052;2023-02-01T09:57:49;3.40;;;2.13;;
8333;SDS011;4204;43.004;23.052;2023-02-01T10:00:24;3.70;;;2.20;;
8333;SDS011;4204;43.004;23.052;2023-02-01T10:03:02;2.87;;;1.73;;
8333;SDS011;4204;43.004;23.052;2023-02-01T10:05:46;4.90;;;2.80;;
8333;SDS011;4204;43.004;23.052;2023-02-01T10:08:37;7.27;;;3.53;;
8333;SDS011;4204;43.004;23.052;2023-02-01T10:11:27;4.23;;;3.20;;
8333;SDS011;4204;43.004;23.052;2023-02-01T10:14:25;3.80;;;2.43;;
8333;SDS011;4204;43.004;23.052;2023-02-01T10:17:19;3.77;;;2.20;;
8333;SDS011;4204;43.004;23.052;2023-02-01T10:19:58;4.20;;;2.50;;
8333;SDS011;4204;43.004;23.052;2023-02-01T10:22:38;4.03;;;2.50;;
8333;SDS011;4204;43.004;23.052;2023-02-01T10:25:13;3.27;;;2.43;;
8333;SDS011;4204;43.004;23.052;2023-02-01T10:27:54;3.73;;;2.23;;
8333;SDS011;4204;43.004;23.052;2023-02-01T10:30:26;5.80;;;2.97;;
8333;SDS011;4204;43.004;23.052;2023-02-01T10:33:01;3.63;;;2.80;;
8333;SDS011;4204;43.004;23.052;2023-02-01T10:35:39;4.33;;;3.23;;
8333;SDS011;4204;43.004;23.052;2023-02-01T10:38:15;5.23;;;3.83;;
8333;SDS011;4204;43.004;23.052;2023-02-01T10:40:48;10.37;;;6.53;;
8333;SDS011;4204;43.004;23.052;2023-02-01T10:43:21;10.77;;;6.90;;
8333;SDS011;4204;43.004;23.052;2023-02-01T10:45:53;3.77;;;2.47;;
8333;SDS011;4204;43.004;23.052;2023-02-01T10:48:27;2.67;;;2.10;;
8333;SDS011;4204;43.004;23.052;2023-02-01T10:50:59;4.83;;;2.50;;
8333;SDS011;4204;43.004;23.052;2023-02-01T10:53:35;3.53;;;2.60;;
8333;SDS011;4204;43.004;23.052;2023-02-01T10:56:18;6.90;;;3.63;;
8333;SDS011;4204;43.004;23.052;2023-02-01T10:58:49;5.83;;;3.80;;
8333;SDS011;4204;43.004;23.052;2023-02-01T11:01:21;5.07;;;3.00;;
8333;SDS011;4204;43.004;23.052;2023-02-01T11:04:02;3.77;;;2.20;;
8333;SDS011;4204;43.004;23.052;2023-02-01T11:06:31;9.20;;;8.30;;
8333;SDS011;4204;43.004;23.052;2023-02-01T11:09:09;2.53;;;2.20;;
8333;SDS011;4204;43.004;23.052;2023-02-01T11:11:52;2.33;;;2.03;;
8333;SDS011;4204;43.004;23.052;2023-02-01T11:14:41;3.00;;;2.30;;
8333;SDS011;4204;43.004;23.052;2023-02-01T11:17:17;3.10;;;2.27;;
8333;SDS011;4204;43.004;23.052;2023-02-01T11:19:58;4.83;;;3.47;;
8333;SDS011;4204;43.004;23.052;2023-02-01T11:22:31;4.20;;;2.67;;
8333;SDS011;4204;43.004;23.052;2023-02-01T11:25:08;6.20;;;3.40;;
8333;SDS011;4204;43.004;23.052;2023-02-01T11:27:49;7.13;;;3.83;;
8333;SDS011;4204;43.004;23.052;2023-02-01T11:30:22;4.17;;;2.47;;
8333;SDS011;4204;43.004;23.052;2023-02-01T11:32:57;11.50;;;4.53;;
8333;SDS011;4204;43.004;23.052;2023-02-01T11:35:26;3.90;;;3.00;;
8333;SDS011;4204;43.004;23.052;2023-02-01T11:37:58;8.97;;;6.27;;
8333;SDS011;4204;43.004;23.052;2023-02-01T11:40:39;8.37;;;5.93;;
8333;SDS011;4204;43.004;23.052;2023-02-01T11:43:07;4.40;;;3.50;;
8333;SDS011;4204;43.004;23.052;2023-02-01T11:45:40;4.83;;;2.67;;
8333;SDS011;4204;43.004;23.052;2023-02-01T11:48:14;3.83;;;2.37;;
8333;SDS011;4204;43.004;23.052;2023-02-01T11:50:51;3.90;;;2.53;;
8333;SDS011;4204;43.004;23.052;2023-02-01T11:53:39;2.73;;;2.10;;
8333;SDS011;4204;43.004;23.052;2023-02-01T11:56:25;3.77;;;2.40;;
8333;SDS011;4204;43.004;23.052;2023-02-01T11:59:23;3.37;;;2.20;;
8333;SDS011;4204;43.004;23.052;2023-02-01T12:02:11;2.77;;;2.40;;
8333;SDS011;4204;43.004;23.052;2023-02-01T12:05:12;3.73;;;2.37;;
8333;SDS011;4204;43.004;23.052;2023-02-01T12:07:56;3.50;;;2.13;;
8333;SDS011;4204;43.004;23.052;2023-02-01T12:10:39;3.93;;;1.97;;
8333;SDS011;4204;43.004;23.052;2023-02-01T12:13:27;3.83;;;2.30;;
8333;SDS011;4204;43.004;23.052;2023-02-01T12:16:11;2.57;;;2.20;;
8333;SDS011;4204;43.004;23.052;2023-02-01T12:21:58;3.10;;;2.07;;
8333;SDS011;4204;43.004;23.052;2023-02-01T12:27:42;4.20;;;2.30;;
8333;SDS011;4204;43.004;23.052;2023-02-01T12:30:34;2.87;;;2.07;;
8333;SDS011;4204;43.004;23.052;2023-02-01T12:33:23;5.07;;;2.20;;
8333;SDS011;4204;43.004;23.052;2023-02-01T12:36:06;6.10;;;3.40;;
8333;SDS011;4204;43.004;23.052;2023-02-01T12:38:45;4.17;;;2.63;;
8333;SDS011;4204;43.004;23.052;2023-02-01T12:41:33;3.50;;;2.03;;
8333;SDS011;4204;43.004;23.052;2023-02-01T12:44:19;3.33;;;1.80;;
8333;SDS011;4204;43.004;23.052;2023-02-01T12:46:58;3.70;;;1.87;;
8333;SDS011;4204;43.004;23.052;2023-02-01T12:49:33;3.60;;;2.10;;
8333;SDS011;4204;43.004;23.052;2023-02-01T12:52:10;3.00;;;2.07;;
8333;SDS011;4204;43.004;23.052;2023-02-01T12:54:45;4.03;;;3.63;;
8333;SDS011;4204;43.004;23.052;2023-02-01T12:57:23;4.43;;;2.77;;
8333;SDS011;4204;43.004;23.052;2023-02-01T12:59:56;4.00;;;2.40;;
8333;SDS011;4204;43.004;23.052;2023-02-01T13:02:33;3.50;;;2.10;;
8333;SDS011;4204;43.004;23.052;2023-02-01T13:05:12;3.83;;;2.63;;
8333;SDS011;4204;43.004;23.052;2023-02-01T13:07:46;2.50;;;2.03;;
8333;SDS011;4204;43.004;23.052;2023-02-01T13:10:21;3.17;;;2.03;;
8333;SDS011;4204;43.004;23.052;2023-02-01T13:12:57;8.10;;;3.30;;
8333;SDS011;4204;43.004;23.052;2023-02-01T13:15:31;6.20;;;2.90;;
8333;SDS011;4204;43.004;23.052;2023-02-01T13:18:04;4.43;;;2.43;;
8333;SDS011;4204;43.004;23.052;2023-02-01T13:20:39;2.80;;;2.20;;
8333;SDS011;4204;43.004;23.052;2023-02-01T13:23:16;3.53;;;2.60;;
8333;SDS011;4204;43.004;23.052;2023-02-01T13:25:51;6.90;;;1.73;;
8333;SDS011;4204;43.004;23.052;2023-02-01T13:28:23;3.73;;;2.43;;
8333;SDS011;4204;43.004;23.052;2023-02-01T13:37:12;4.70;;;3.00;;
8333;SDS011;4204;43.004;23.052;2023-02-01T13:40:04;4.67;;;3.20;;
8333;SDS011;4204;43.004;23.052;2023-02-01T13:42:47;4.93;;;3.47;;
8333;SDS011;4204;43.004;23.052;2023-02-01T13:45:19;4.97;;;2.60;;
8333;SDS011;4204;43.004;23.052;2023-02-01T13:47:50;4.70;;;2.80;;
8333;SDS011;4204;43.004;23.052;2023-02-01T13:50:22;10.30;;;3.83;;
8333;SDS011;4204;43.004;23.052;2023-02-01T13:52:53;4.03;;;2.90;;
8333;SDS011;4204;43.004;23.052;2023-02-01T13:55:25;3.43;;;2.83;;
8333;SDS011;4204;43.004;23.052;2023-02-01T13:58:02;11.30;;;6.03;;
8333;SDS011;4204;43.004;23.052;2023-02-01T14:00:40;29.20;;;13.80;;
8333;SDS011;4204;43.004;23.052;2023-02-01T14:03:14;16.57;;;7.70;;
8333;SDS011;4204;43.004;23.052;2023-02-01T14:09:12;10.80;;;6.30;;
8333;SDS011;4204;43.004;23.052;2023-02-01T14:11:46;54.67;;;37.67;;
8333;SDS011;4204;43.004;23.052;2023-02-01T14:23:22;8.03;;;6.67;;
8333;SDS011;4204;43.004;23.052;2023-02-01T14:26:07;9.80;;;7.67;;
8333;SDS011;4204;43.004;23.052;2023-02-01T14:28:42;8.97;;;6.47;;
8333;SDS011;4204;43.004;23.052;2023-02-01T14:31:14;7.90;;;6.27;;
8333;SDS011;4204;43.004;23.052;2023-02-01T14:33:49;8.67;;;5.70;;
8333;SDS011;4204;43.004;23.052;2023-02-01T14:36:25;10.37;;;7.33;;
8333;SDS011;4204;43.004;23.052;2023-02-01T14:39:03;11.20;;;7.50;;
8333;SDS011;4204;43.004;23.052;2023-02-01T14:41:32;22.23;;;13.13;;
8333;SDS011;4204;43.004;23.052;2023-02-01T14:44:21;28.23;;;16.33;;
8333;SDS011;4204;43.004;23.052;2023-02-01T14:49:58;26.00;;;13.80;;
8333;SDS011;4204;43.004;23.052;2023-02-01T14:52:43;32.70;;;20.97;;
8333;SDS011;4204;43.004;23.052;2023-02-01T14:55:14;22.20;;;13.23;;
8333;SDS011;4204;43.004;23.052;2023-02-01T14:57:48;20.53;;;11.07;;
8333;SDS011;4204;43.004;23.052;2023-02-01T15:00:20;17.27;;;10.57;;
8333;SDS011;4204;43.004;23.052;2023-02-01T15:02:50;18.70;;;11.30;;
8333;SDS011;4204;43.004;23.052;2023-02-01T15:05:26;18.13;;;10.20;;
8333;SDS011;4204;43.004;23.052;2023-02-01T15:07:58;15.33;;;8.87;;
8333;SDS011;4204;43.004;23.052;2023-02-01T15:10:32;44.40;;;31.90;;
8333;SDS011;4204;43.004;23.052;2023-02-01T15:13:20;25.30;;;18.57;;
8333;SDS011;4204;43.004;23.052;2023-02-01T15:16:02;19.77;;;12.53;;
8333;SDS011;4204;43.004;23.052;2023-02-01T15:18:31;15.00;;;8.10;;
8333;SDS011;4204;43.004;23.052;2023-02-01T15:21:00;12.63;;;8.40;;
8333;SDS011;4204;43.004;23.052;2023-02-01T15:23:29;15.10;;;10.43;;
8333;SDS011;4204;43.004;23.052;2023-02-01T15:25:57;17.53;;;10.00;;
8333;SDS011;4204;43.004;23.052;2023-02-01T15:28:27;12.93;;;8.53;;
8333;SDS011;4204;43.004;23.052;2023-02-01T15:30:57;23.90;;;11.50;;
8333;SDS011;4204;43.004;23.052;2023-02-01T15:33:26;12.60;;;6.57;;
8333;SDS011;4204;43.004;23.052;2023-02-01T15:36:06;14.97;;;7.23;;
8333;SDS011;4204;43.004;23.052;2023-02-01T15:38:36;15.77;;;8.73;;
8333;SDS011;4204;43.004;23.052;2023-02-01T15:41:07;12.57;;;8.63;;
8333;SDS011;4204;43.004;23.052;2023-02-01T15:43:43;8.53;;;5.87;;
8333;SDS011;4204;43.004;23.052;2023-02-01T15:46:15;10.47;;;6.27;;
8333;SDS011;4204;43.004;23.052;2023-02-01T15:48:51;16.67;;;11.27;;
8333;SDS011;4204;43.004;23.052;2023-02-01T15:51:21;23.30;;;12.07;;
8333;SDS011;4204;43.004;23.052;2023-02-01T15:53:51;27.10;;;14.93;;
8333;SDS011;4204;43.004;23.052;2023-02-01T15:56:23;24.10;;;15.43;;
8333;SDS011;4204;43.004;23.052;2023-02-01T15:58:55;35.17;;;19.37;;
8333;SDS011;4204;43.004;23.052;2023-02-01T16:01:26;28.50;;;17.43;;
8333;SDS011;4204;43.004;23.052;2023-02-01T16:04:09;23.30;;;13.67;;
8333;SDS011;4204;43.004;23.052;2023-02-01T16:06:46;19.83;;;12.13;;
8333;SDS011;4204;43.004;23.052;2023-02-01T16:09:17;18.87;;;10.27;;
8333;SDS011;4204;43.004;23.052;2023-02-01T16:11:47;20.00;;;10.43;;
8333;SDS011;4204;43.004;23.052;2023-02-01T16:14:22;22.07;;;10.83;;
8333;SDS011;4204;43.004;23.052;2023-02-01T16:16:51;15.70;;;10.50;;
8333;SDS011;4204;43.004;23.052;2023-02-01T16:19:21;15.63;;;10.43;;
8333;SDS011;4204;43.004;23.052;2023-02-01T16:21:54;18.23;;;11.20;;
8333;SDS011;4204;43.004;23.052;2023-02-01T16:24:22;27.63;;;16.70;;